Historyczne dane pomiarowe

Dodano dane terminowe – wersja testowa.

Dane z okresu 1951-2019

Wersja bazy: 1.34 [2019-03-16, lista zmian], aktualizacja planowana na 2019-04-15

Dane meteo z obszaru Polski uzyskane na podstawie danych udostępnionych przez Instytut Meteorologii i Gospodarki Wodnej – Państwowy Instytut Badawczy.

 

Wybierz Datę:    

       

TemperaturaWilgotnośćWiatrCiśnienieOpadyŚniegCzas trwania zjawisk
 Stacja t tx tn tng RH VA  wxwx mslp ppp RRR   cm mm wxwxwxwxwxwxwx
1961-08-14 15.1 17.5 10.2 8.1 77.0- 7.3 3.0---- 5.5------------
1961-08-13 13.6 19.1 10.2 8.4 74.0- 3.3 3.7---- 0.0------------
1961-08-12 14.7 18.9 13.2 12.0 82.0- 3.3 2.7---- 0.2------------
1961-08-11 15.9 17.3 13.8 12.6 95.3- 6.3 0.7---- 7.9------------
1961-08-10 18.3 22.4 13.0 11.5 82.3- 7.3 1.7---- 2.4------------
1961-08-09 17.8 24.1 12.5 10.3 74.8- 2.7 2.7---- 0.0------------
1961-08-08 16.2 18.9 9.5 8.0 80.5- 5.3 3.0---- 1.8------------
1961-08-07 14.6 20.1 13.2 13.3 92.3- 5.0 2.0---- 1.4------------
1961-08-06 17.8 23.5 15.2 15.3 80.0- 6.0 2.7---- 2.8------------
1961-08-05 17.3 20.1 13.3 11.8 86.5- 6.0 2.3---- 4.2------------
1961-08-04 14.6 16.2 11.9 10.2 87.5- 6.7 5.0---- 3.8------------
1961-08-03 13.6 17.7 12.9 12.4 82.3- 4.7 4.3---- 14.3------------
1961-08-02 15.2 18.3 12.7 11.2 88.3- 6.7 2.7---- 1.6------------
1961-08-01 15.0 19.2 12.9 11.1 84.0- 5.0 4.3---- 0.2------------
1961-07-31 14.7 16.7 13.7 12.4 86.3- 7.3 7.0---- 13.6------------
1961-07-30 15.0 18.1 12.1 10.2 81.8- 6.7 5.3---- 0.0------------
1961-07-29 14.5 17.7 11.3 9.9 74.0- 5.7 4.3---- 1.3------------
1961-07-28 14.0 16.8 12.1 11.4 80.3- 6.3 3.0---- 0.5------------
1961-07-27 15.9 20.0 15.5 14.0 78.0- 7.3 4.3---- 0.8------------
1961-07-26 17.3 23.7 14.5 13.3 85.5- 8.0 3.7---- 4.2------------
1961-07-25 16.0 18.8 12.2 11.1 75.3- 6.0 2.7---- 0.3------------
1961-07-24 14.6 17.7 12.3 11.1 72.0- 5.7 4.3---- 0.0------------
1961-07-23 15.0 18.3 13.5 13.3 74.8- 7.7 3.7---- 0.0------------
1961-07-22 15.1 17.1 13.2 14.5 82.5- 7.3 3.7---- 0.5------------
1961-07-21 15.2 17.8 13.5 14.9 87.3- 6.0 2.7---- 8.1------------
1961-07-20 15.0 18.7 13.1 14.2 90.5- 6.7 2.7---- 1.8------------
1961-07-19 14.9 20.1 12.0 13.4 83.0- 5.0 3.0---- 3.2------------
1961-07-18 14.7 18.8 11.5 12.3 92.3- 4.7 1.7---- 4.8------------
1961-07-17 14.0 19.4 12.4 14.9 86.8- 5.3 2.0---- 0.6------------
1961-07-16 15.7 19.5 11.7 16.6 88.5- 5.0 3.7---- 0.0------------
1961-07-15 16.7 22.4 13.6 9.9 78.5- 4.0 2.7---- 3.5------------
1961-07-14 15.7 20.5 12.5 13.2 73.3- 7.3 5.7---- 0.1------------
1961-07-13 19.3 25.9 16.1 15.8 81.8- 6.0 4.3---- 0.4------------
1961-07-12 17.6 20.5 13.4 11.8 86.0- 5.0 3.3---- 0.0------------
1961-07-11 15.8 19.1 10.6 8.7 82.5- 6.0 2.7---- 21.1------------
1961-07-10 13.9 16.8 10.7 9.5 76.8- 5.7 5.0---- 0.8------------
1961-07-09 13.9 18.5 13.1 13.7 88.5- 7.0 2.7---- 0.4------------
1961-07-08 16.8 20.0 13.2 12.0 80.3- 7.0 2.3---- 4.4------------
1961-07-07 13.6 17.2 10.8 9.4 81.8- 6.7 2.7---- 0.6------------
1961-07-06 13.1 16.8 10.4 9.5 83.5- 5.3 5.3---- 1.3------------
1961-07-05 11.7 16.3 10.8 9.5 81.8- 4.7 5.3---- 1.6------------
1961-07-04 16.0 18.0 12.5 11.2 73.8- 7.0 3.3---- 1.0------------
1961-07-03 18.3 30.9 15.5 15.0 74.5- 2.3 4.3---- 0.4------------
1961-07-02 22.9 29.8 15.3 12.5 70.5- 0.0 1.0---- 0.0------------
1961-07-01 18.9 21.4 11.1 9.2 66.8- 0.0 1.3---- 0.0------------
1961-06-30 17.5 19.2 12.9 10.7 72.0- 0.0 2.7---- 0.0------------
1961-06-29 17.5 22.2 12.1 11.4 70.8- 2.7 3.7---- 0.0------------
1961-06-28 15.0 18.1 10.5 8.9 75.0- 5.0 5.0---- 0.0------------
1961-06-27 18.2 23.8 15.8 18.5 87.3- 5.7 4.0---- 11.2------------
1961-06-26 22.5 28.2 11.9 8.7 58.5- 0.0 2.3---- 2.6------------
1961-06-25 20.9 27.8 14.7 13.4 64.5- 2.0 4.0---- 0.0------------
1961-06-24 18.7 24.2 12.8 12.1 56.3- 5.0 4.3---- 0.0------------
1961-06-23 17.7 22.6 13.5 11.4 64.3- 5.0 4.7---- 0.0------------
1961-06-22 17.5 22.1 9.5 6.5 64.8- 4.0 2.3---- 0.0------------
1961-06-21 14.2 18.0 12.4 10.0 65.3- 4.7 2.3---- 0.0------------
1961-06-20 14.5 19.8 8.7 6.6 59.8- 2.7 2.7---- 0.0------------
1961-06-19 14.6 18.7 10.7 8.7 61.0- 2.7 6.3---- 0.0------------
1961-06-18 17.9 22.6 15.4 15.2 80.3- 4.7 4.3---- 1.3------------
1961-06-17 19.2 24.5 11.7 10.7 65.5- 4.3 3.0---- 0.0------------
1961-06-16 15.4 20.1 10.3 9.4 64.8- 3.7 3.7---- 0.0------------
376.0 ms

 

Źródłem pochodzenia danych jest Instytut Meteorologii i Gospodarki Wodnej – Państwowy Instytut Badawczy. Dane Instytutu Meteorologii i Gospodarki Wodnej – Państwowego Instytutu Badawczego zostały przetworzone.

Dane źródłowe można odnaleźć na stronie https://dane.imgw.pl